createdAt,value
2018-09-19T02:16:39.146Z,91.50
2018-09-19T02:19:07.656Z,99.90
2018-09-19T02:21:35.973Z,99.90
2018-09-19T02:24:04.231Z,99.90
2018-09-19T02:26:32.533Z,99.90
2018-09-19T02:29:00.777Z,99.90
2018-09-19T02:31:29.113Z,99.90
2018-09-19T02:49:10.271Z,99.90
2018-09-19T02:51:38.506Z,99.90
2018-09-19T02:54:07.131Z,99.90
2018-09-19T02:56:35.409Z,99.90
2018-09-19T02:59:03.686Z,99.90
2018-09-19T03:01:31.974Z,99.90
2018-09-19T03:04:00.255Z,99.90
2018-09-19T03:06:28.569Z,99.90
2018-09-19T03:08:56.828Z,99.90
2018-09-19T03:11:25.079Z,99.90
2018-09-19T03:21:17.383Z,99.90
2018-09-19T03:31:10.598Z,99.90
2018-09-19T03:33:38.830Z,99.90
2018-09-19T03:36:07.109Z,99.90
2018-09-19T03:38:35.383Z,99.90
2018-09-19T03:41:03.627Z,99.90
2018-09-19T03:43:31.895Z,99.90
2018-09-19T03:46:00.167Z,99.90
2018-09-19T03:48:28.445Z,99.90
2018-09-19T03:50:56.709Z,99.90
2018-09-19T03:53:24.996Z,99.90
2018-09-19T03:55:53.334Z,99.90
2018-09-19T03:58:21.671Z,99.90
2018-09-19T04:00:49.902Z,99.90
2018-09-19T04:03:18.739Z,99.90
2018-09-19T04:05:47.559Z,99.90
2018-09-19T04:08:15.819Z,99.90
2018-09-19T04:10:44.148Z,99.90
2018-09-19T04:20:36.408Z,99.90
2018-09-19T04:23:04.699Z,99.90
2018-09-19T04:25:32.976Z,99.90
2018-09-19T04:28:01.254Z,99.90
2018-09-19T04:30:29.504Z,99.90
2018-09-19T04:32:57.916Z,99.90
2018-09-19T04:35:26.201Z,99.90
2018-09-19T04:37:54.458Z,99.90
2018-09-19T04:40:22.702Z,99.90
2018-09-19T04:42:50.974Z,99.90
2018-09-19T04:45:19.315Z,99.90
2018-09-19T04:47:47.807Z,99.90
2018-09-19T04:50:16.084Z,99.90
2018-09-19T04:52:44.350Z,99.90
2018-09-19T04:55:14.683Z,99.90
2018-09-19T04:57:43.026Z,99.90
2018-09-19T05:00:11.762Z,99.90
2018-09-19T05:02:40.556Z,99.90
2018-09-19T05:05:08.903Z,99.90
2018-09-19T05:07:37.271Z,99.90
2018-09-19T05:10:05.668Z,99.90
2018-09-19T05:12:33.983Z,99.90
2018-09-19T05:15:02.283Z,99.90
2018-09-19T05:17:30.564Z,99.90
2018-09-19T05:19:58.845Z,99.90
2018-09-19T05:22:27.207Z,99.90
2018-09-19T05:24:55.498Z,99.90
2018-09-19T05:29:51.824Z,99.90
2018-09-19T05:32:20.248Z,99.90
2018-09-19T05:34:49.013Z,99.90
2018-09-19T05:37:17.343Z,99.90
2018-09-19T05:47:09.959Z,99.90
2018-09-19T05:49:38.215Z,99.90
2018-09-19T05:52:06.576Z,99.90
2018-09-19T05:54:34.920Z,99.90
2018-09-19T05:57:03.127Z,99.90
2018-09-19T05:59:31.419Z,99.90
2018-09-19T06:01:59.720Z,99.90
2018-09-19T06:14:20.129Z,99.90
2018-09-19T06:16:48.487Z,99.90
2018-09-19T06:19:16.733Z,99.90
2018-09-19T06:21:45.013Z,99.90
2018-09-19T06:26:41.289Z,99.90
2018-09-19T06:29:09.560Z,99.90
2018-09-19T06:31:37.831Z,99.90
2018-09-19T06:34:06.574Z,99.90
2018-09-19T06:39:02.835Z,99.90
2018-09-19T06:43:59.099Z,99.90
2018-09-19T06:46:27.378Z,99.90
2018-09-19T06:48:55.696Z,99.90
2018-09-19T06:51:24.120Z,99.90
2018-09-19T06:53:52.404Z,99.90
2018-09-19T06:56:20.648Z,99.90
2018-09-19T06:58:48.948Z,99.90
2018-09-19T07:06:13.841Z,99.90
2018-09-19T07:08:42.135Z,99.90
2018-09-19T07:11:10.576Z,99.90
2018-09-19T07:13:38.857Z,99.90
2018-09-19T07:16:07.164Z,99.90
2018-09-19T07:18:35.589Z,99.90
2018-09-19T07:21:03.833Z,99.90
2018-09-19T07:23:32.379Z,99.90
2018-09-19T07:26:00.721Z,99.90
2018-09-19T07:28:28.981Z,99.90
2018-09-19T07:30:57.373Z,99.90
2018-09-19T07:33:25.809Z,99.90
2018-09-19T07:35:54.937Z,99.90
2018-09-19T07:38:23.216Z,99.90
2018-09-19T07:40:51.585Z,99.90
2018-09-19T07:43:20.141Z,99.70
2018-09-19T07:45:48.416Z,99.40
2018-09-19T07:48:16.740Z,99.20
2018-09-19T07:50:44.996Z,99.10
2018-09-19T07:53:13.481Z,98.50
2018-09-19T07:55:41.814Z,98.10
2018-09-19T08:05:35.394Z,98.40
2018-09-19T08:08:04.085Z,97.10
2018-09-19T08:10:32.337Z,96.20
2018-09-19T08:13:00.814Z,96.60
2018-09-19T08:15:29.091Z,96.90
2018-09-19T08:17:57.387Z,96.40
2018-09-19T08:25:21.724Z,95.80
2018-09-19T08:27:50.146Z,94.90
2018-09-19T08:30:18.901Z,94.60
2018-09-19T08:32:47.509Z,94.90
2018-09-19T08:35:15.844Z,94.50
2018-09-19T08:37:44.171Z,94.80
2018-09-19T08:40:12.527Z,94.00
2018-09-19T08:42:46.525Z,93.80
2018-09-19T08:45:15.179Z,94.00
2018-09-19T08:47:43.581Z,94.40
2018-09-19T08:50:11.846Z,94.20
2018-09-19T08:52:40.125Z,94.00
